createdAt,value
2019-02-12T00:02:25.647Z,7.10
2019-02-12T00:04:55.740Z,9.50
2019-02-12T00:07:30.789Z,9.38
2019-02-12T00:10:04.848Z,6.72
2019-02-12T00:12:35.997Z,5.90
2019-02-12T00:15:06.457Z,8.90
2019-02-12T00:17:38.617Z,10.68
2019-02-12T00:20:10.003Z,18.12
2019-02-12T00:22:41.989Z,15.50
2019-02-12T00:25:11.535Z,11.28
2019-02-12T00:27:43.595Z,9.38
2019-02-12T00:30:15.018Z,7.58
2019-02-12T00:32:44.975Z,13.38
2019-02-12T00:35:16.577Z,8.08
2019-02-12T00:37:47.357Z,10.05
2019-02-12T00:40:19.456Z,16.17
2019-02-12T00:42:51.272Z,11.25
2019-02-12T00:45:21.009Z,17.98
2019-02-12T00:47:51.625Z,12.88
2019-02-12T00:50:21.753Z,17.35
2019-02-12T00:52:52.130Z,10.35
2019-02-12T00:55:22.339Z,7.90
2019-02-12T00:57:54.889Z,13.25
2019-02-12T01:00:24.126Z,12.93
2019-02-12T01:02:54.690Z,7.58
2019-02-12T01:05:24.872Z,11.88
2019-02-12T01:07:55.975Z,6.33
2019-02-12T01:10:26.638Z,8.48
2019-02-12T01:13:02.323Z,14.10
2019-02-12T01:15:35.530Z,8.33
2019-02-12T01:18:05.676Z,8.55
2019-02-12T01:20:35.466Z,8.30
2019-02-12T01:23:08.967Z,13.43
2019-02-12T01:25:41.747Z,14.85
2019-02-12T01:28:12.378Z,17.57
2019-02-12T01:30:42.729Z,14.47
2019-02-12T01:33:14.497Z,6.12
2019-02-12T01:35:46.141Z,9.50
2019-02-12T01:38:16.303Z,13.30
2019-02-12T01:40:46.239Z,8.38
2019-02-12T01:43:20.534Z,10.50
2019-02-12T01:45:50.301Z,13.72
2019-02-12T01:48:19.625Z,8.43
2019-02-12T01:50:52.676Z,12.93
2019-02-12T01:53:26.355Z,15.08
2019-02-12T01:56:00.553Z,8.93
2019-02-12T01:58:32.351Z,12.98
2019-02-12T02:01:04.215Z,8.68
2019-02-12T02:03:39.307Z,9.00
2019-02-12T02:06:09.495Z,16.02
2019-02-12T02:08:40.242Z,13.78
2019-02-12T02:11:11.051Z,10.80
2019-02-12T02:13:42.345Z,13.28
2019-02-12T02:16:12.898Z,15.78
2019-02-12T02:18:44.684Z,11.65
2019-02-12T02:21:15.725Z,11.28
2019-02-12T02:23:45.465Z,15.32
2019-02-12T02:26:15.761Z,10.08
2019-02-12T02:28:47.755Z,12.05
2019-02-12T02:31:18.377Z,10.38
2019-02-12T02:33:48.347Z,10.80
2019-02-12T02:36:19.248Z,11.35
2019-02-12T02:38:50.331Z,16.17
2019-02-12T02:41:22.061Z,14.38
2019-02-12T02:43:57.374Z,10.03
2019-02-12T02:46:31.856Z,10.15
2019-02-12T02:49:04.031Z,13.88
2019-02-12T02:51:37.561Z,17.23
2019-02-12T02:54:08.045Z,10.20
2019-02-12T02:56:41.750Z,14.55
2019-02-12T02:59:14.109Z,12.70
2019-02-12T03:01:44.421Z,20.72
2019-02-12T03:04:13.886Z,16.20
2019-02-12T03:06:46.245Z,11.57
2019-02-12T03:09:21.123Z,15.63
2019-02-12T03:11:51.133Z,14.47
2019-02-12T03:14:21.964Z,10.93
2019-02-12T03:16:51.918Z,13.43
2019-02-12T03:19:22.420Z,13.93
2019-02-12T03:21:52.262Z,17.32
2019-02-12T03:24:23.177Z,15.70
2019-02-12T03:26:52.769Z,15.10
2019-02-12T03:29:23.254Z,11.40
2019-02-12T03:31:53.265Z,20.08
2019-02-12T03:34:25.843Z,13.18
2019-02-12T03:36:55.437Z,12.85
2019-02-12T03:39:25.724Z,14.87
2019-02-12T03:41:55.104Z,11.60
2019-02-12T03:44:24.943Z,13.62
2019-02-12T03:46:55.937Z,7.35
2019-02-12T03:49:26.408Z,12.88
2019-02-12T03:51:56.728Z,12.23
2019-02-12T03:54:27.695Z,14.38
2019-02-12T03:56:57.134Z,17.70
2019-02-12T03:59:27.710Z,11.30
2019-02-12T04:01:58.951Z,18.48
2019-02-12T04:04:28.925Z,7.83
2019-02-12T04:07:02.783Z,13.18
2019-02-12T04:09:34.149Z,16.62
2019-02-12T04:12:04.623Z,12.03
2019-02-12T04:14:39.279Z,7.60
2019-02-12T04:17:08.667Z,14.35
2019-02-12T04:19:38.598Z,11.50
2019-02-12T04:22:22.347Z,8.88
2019-02-12T04:24:49.905Z,7.85
2019-02-12T04:27:24.134Z,6.20
2019-02-12T04:29:53.321Z,12.73
2019-02-12T04:32:24.496Z,5.00
2019-02-12T04:34:54.702Z,9.00
2019-02-12T04:37:29.472Z,7.97
2019-02-12T04:39:59.931Z,8.53
2019-02-12T04:42:29.488Z,9.55
2019-02-12T04:45:03.946Z,9.60
2019-02-12T04:50:22.883Z,12.73
2019-02-12T04:52:53.364Z,8.03
2019-02-12T04:55:32.994Z,13.38
2019-02-12T04:58:05.973Z,11.35
2019-02-12T05:00:37.125Z,11.40
2019-02-12T05:03:09.871Z,12.07
2019-02-12T05:05:39.534Z,13.73
2019-02-12T05:08:10.254Z,15.40
2019-02-12T05:10:44.156Z,12.15
2019-02-12T05:13:13.368Z,16.17
2019-02-12T05:15:43.144Z,10.05
2019-02-12T05:18:12.567Z,11.12
2019-02-12T05:20:46.002Z,17.15
2019-02-12T05:23:16.166Z,11.70
2019-02-12T05:25:45.671Z,10.18
2019-02-12T05:28:54.436Z,12.93
2019-02-12T05:31:24.129Z,16.75
2019-02-12T05:33:54.843Z,12.60
2019-02-12T05:36:25.048Z,15.48
2019-02-12T05:38:55.757Z,13.78
2019-02-12T05:41:26.360Z,10.75
2019-02-12T05:43:55.715Z,11.15
2019-02-12T05:46:25.062Z,11.20
2019-02-12T05:48:54.933Z,12.18
2019-02-12T05:51:27.122Z,10.72
2019-02-12T05:53:56.812Z,15.85
2019-02-12T05:56:28.269Z,10.70
2019-02-12T05:58:58.257Z,12.43
2019-02-12T06:01:27.713Z,9.70
2019-02-12T06:03:56.799Z,15.53
2019-02-12T06:06:26.188Z,13.83
2019-02-12T06:08:56.712Z,12.28
2019-02-12T06:11:27.532Z,19.12
2019-02-12T06:13:58.728Z,13.65
2019-02-12T06:16:35.360Z,15.98
2019-02-12T06:19:06.424Z,16.42
2019-02-12T06:21:35.675Z,15.35
2019-02-12T06:24:04.978Z,13.10
2019-02-12T06:26:34.644Z,17.12
2019-02-12T06:29:05.608Z,20.80
2019-02-12T06:31:35.628Z,10.88
2019-02-12T06:34:04.991Z,10.85
2019-02-12T06:36:33.817Z,14.63
2019-02-12T06:39:02.709Z,13.10
2019-02-12T06:41:33.179Z,10.80
2019-02-12T06:44:02.347Z,9.85
2019-02-12T06:46:31.656Z,16.65
2019-02-12T06:49:00.555Z,23.95
2019-02-12T06:51:29.346Z,14.45
2019-02-12T06:53:58.693Z,16.95
2019-02-12T06:56:29.187Z,12.45
2019-02-12T06:58:58.158Z,16.40
2019-02-12T07:01:26.999Z,15.15
2019-02-12T07:04:30.447Z,15.50
2019-02-12T07:07:56.450Z,19.40
2019-02-12T07:10:36.190Z,12.93
2019-02-12T07:13:41.825Z,17.60
2019-02-12T07:16:42.210Z,12.78
2019-02-12T07:20:00.234Z,27.98
2019-02-12T07:23:10.624Z,14.28
2019-02-12T07:32:04.658Z,10.82
2019-02-12T07:35:08.296Z,7.67
2019-02-12T07:38:02.422Z,11.53
2019-02-12T07:44:05.704Z,16.82
2019-02-12T07:46:58.120Z,14.23
2019-02-12T07:49:47.376Z,15.20
2019-02-12T07:52:58.583Z,13.72
2019-02-12T07:56:09.036Z,10.45
2019-02-12T07:59:24.730Z,11.25
2019-02-12T08:02:33.779Z,13.95
2019-02-12T08:05:55.814Z,13.00
2019-02-12T08:09:33.519Z,10.80
2019-02-12T08:12:40.792Z,8.18
2019-02-12T08:15:27.665Z,12.40
2019-02-12T08:18:14.318Z,11.97
2019-02-12T08:21:28.576Z,11.80
2019-02-12T08:24:24.568Z,11.55
2019-02-12T08:27:19.404Z,17.30
2019-02-12T08:30:15.073Z,15.58
2019-02-12T08:33:40.104Z,13.30
2019-02-12T08:39:30.190Z,15.25
2019-02-12T08:42:23.667Z,10.35
2019-02-12T08:45:46.162Z,9.45
2019-02-12T08:48:46.024Z,10.45
2019-02-12T08:51:53.432Z,10.08
2019-02-12T08:54:59.005Z,13.08
2019-02-12T08:58:00.456Z,14.40
2019-02-12T09:00:53.737Z,9.58
2019-02-12T09:03:54.129Z,12.57
2019-02-12T09:06:49.026Z,8.70
2019-02-12T09:09:59.402Z,10.43
2019-02-12T09:12:56.665Z,9.45
2019-02-12T09:16:22.268Z,10.88
2019-02-12T09:19:15.180Z,13.80
2019-02-12T09:22:29.867Z,13.62
2019-02-12T09:28:32.950Z,12.68
2019-02-12T09:31:28.970Z,8.55
2019-02-12T09:34:35.216Z,13.35
2019-02-12T09:37:51.332Z,8.53
2019-02-12T09:40:56.347Z,10.08
2019-02-12T09:43:39.834Z,13.30
2019-02-12T09:46:34.596Z,18.20
2019-02-12T09:49:38.827Z,10.38
2019-02-12T09:52:40.490Z,13.30
2019-02-12T09:55:24.629Z,12.37
2019-02-12T09:58:25.197Z,12.35
2019-02-12T10:01:11.154Z,10.80
2019-02-12T10:04:06.955Z,13.80
2019-02-12T10:07:29.408Z,10.28
2019-02-12T10:10:30.619Z,13.35
2019-02-12T10:13:09.161Z,14.23
2019-02-12T10:15:56.396Z,16.87
2019-02-12T10:19:04.592Z,13.80
2019-02-12T10:22:30.323Z,15.95
2019-02-12T10:25:11.476Z,15.32
2019-02-12T10:28:20.546Z,12.18
2019-02-12T10:31:34.064Z,15.98
2019-02-12T10:34:02.877Z,14.95
2019-02-12T10:36:38.593Z,10.23
2019-02-12T10:39:09.035Z,11.10
2019-02-12T10:41:37.802Z,10.25
2019-02-12T10:44:06.614Z,7.47
2019-02-12T10:46:36.102Z,11.03
2019-02-12T10:49:12.757Z,17.52
2019-02-12T10:51:43.447Z,11.78
2019-02-12T10:54:13.559Z,11.90
2019-02-12T10:56:42.450Z,13.68
2019-02-12T10:59:11.125Z,8.43
2019-02-12T11:01:53.181Z,13.53
2019-02-12T11:04:22.126Z,11.97
2019-02-12T11:06:50.791Z,7.90
2019-02-12T11:09:19.697Z,19.50
2019-02-12T11:11:48.405Z,7.08
2019-02-12T11:14:17.293Z,9.10
2019-02-12T11:16:45.956Z,12.53
2019-02-12T11:19:16.499Z,13.10
2019-02-12T11:21:45.253Z,10.08
2019-02-12T11:24:13.993Z,11.03
2019-02-12T11:26:43.384Z,8.03
2019-02-12T11:29:13.635Z,11.57
2019-02-12T11:31:58.342Z,7.05
2019-02-12T11:34:28.231Z,10.88
2019-02-12T11:36:57.532Z,8.18
2019-02-12T11:39:27.136Z,7.15
2019-02-12T11:42:06.779Z,5.77
2019-02-12T11:44:36.512Z,9.70
2019-02-12T11:47:05.214Z,4.75
2019-02-12T11:49:33.918Z,11.83
2019-02-12T11:52:02.719Z,9.00
2019-02-12T11:54:32.852Z,11.55
2019-02-12T11:57:01.662Z,14.87
2019-02-12T11:59:30.442Z,10.53
2019-02-12T12:01:59.173Z,16.35
2019-02-12T12:04:27.970Z,6.00
2019-02-12T12:06:56.832Z,16.82
2019-02-12T12:09:25.588Z,13.35
2019-02-12T12:11:54.396Z,13.20
2019-02-12T12:14:24.252Z,8.83
2019-02-12T12:16:53.065Z,8.53
2019-02-12T12:19:23.078Z,8.98
2019-02-12T12:21:52.499Z,12.78
2019-02-12T12:24:21.672Z,9.45
2019-02-12T12:26:50.401Z,13.35
2019-02-12T12:29:19.169Z,8.63
2019-02-12T12:31:47.931Z,10.20
2019-02-12T12:34:19.935Z,9.20
2019-02-12T12:36:48.790Z,13.68
2019-02-12T12:39:17.611Z,16.73
2019-02-12T12:41:46.387Z,14.85
2019-02-12T12:44:17.641Z,16.57
2019-02-12T12:46:47.153Z,17.15
2019-02-12T12:49:16.364Z,13.62
2019-02-12T12:51:45.161Z,12.75
2019-02-12T12:54:14.031Z,14.73
2019-02-12T12:56:43.540Z,16.37
2019-02-12T12:59:12.311Z,19.12
2019-02-12T13:01:41.112Z,13.10
2019-02-12T13:04:11.546Z,15.43
2019-02-12T13:06:40.928Z,12.30
2019-02-12T13:09:09.889Z,12.78
2019-02-12T13:11:38.731Z,12.88
2019-02-12T13:14:07.454Z,16.48
2019-02-12T13:16:36.248Z,14.03
2019-02-12T13:19:04.911Z,17.62
2019-02-12T13:21:34.620Z,11.55
2019-02-12T13:24:03.860Z,11.03
2019-02-12T13:26:33.027Z,9.68
2019-02-12T13:29:02.138Z,16.55
2019-02-12T13:31:33.249Z,21.77
2019-02-12T13:34:03.474Z,14.15
2019-02-12T13:36:32.272Z,14.80
2019-02-12T13:39:01.097Z,12.80
2019-02-12T13:41:32.040Z,14.00
2019-02-12T13:44:00.954Z,16.40
2019-02-12T13:46:29.790Z,23.35
2019-02-12T13:49:01.738Z,9.18
2019-02-12T13:51:31.311Z,19.37
2019-02-12T13:54:00.235Z,9.25
2019-02-12T13:56:32.313Z,18.95
2019-02-12T13:59:01.100Z,8.05
2019-02-12T14:01:30.244Z,15.65
2019-02-12T14:03:59.336Z,14.15
2019-02-12T14:06:28.034Z,21.95
2019-02-12T14:08:59.412Z,13.18
2019-02-12T14:11:28.178Z,13.10
2019-02-12T14:14:04.467Z,19.85
2019-02-12T14:16:34.827Z,10.90
2019-02-12T14:19:03.696Z,15.43
2019-02-12T14:21:34.208Z,10.35
2019-02-12T14:24:06.916Z,18.30
2019-02-12T14:26:56.154Z,16.30
2019-02-12T14:29:24.805Z,13.30
2019-02-12T14:31:53.505Z,11.95
2019-02-12T14:34:22.309Z,11.30
2019-02-12T14:36:51.015Z,21.07
2019-02-12T14:39:19.768Z,22.90
2019-02-12T14:41:48.646Z,19.65
2019-02-12T14:44:19.346Z,27.60
2019-02-12T14:46:48.114Z,18.02
2019-02-12T14:49:17.246Z,17.90
2019-02-12T14:51:48.214Z,23.85
2019-02-12T14:54:16.845Z,26.52
2019-02-12T14:56:45.617Z,18.30
2019-02-12T14:59:14.315Z,11.22
2019-02-12T15:01:42.974Z,17.00
2019-02-12T15:04:11.699Z,18.32
2019-02-12T15:06:40.693Z,19.17
2019-02-12T15:09:09.359Z,16.45
2019-02-12T15:11:38.122Z,17.27
2019-02-12T15:14:15.161Z,14.03
2019-02-12T15:16:45.183Z,14.63
2019-02-12T15:19:13.932Z,18.65
2019-02-12T15:21:42.746Z,18.25
2019-02-12T15:24:11.292Z,16.42
2019-02-12T15:26:39.968Z,22.25
2019-02-12T15:29:08.649Z,20.35
2019-02-12T15:31:37.265Z,20.62
2019-02-12T15:34:06.062Z,15.32
2019-02-12T15:36:35.315Z,13.15
2019-02-12T15:39:05.585Z,13.53
2019-02-12T15:41:34.300Z,19.90
2019-02-12T15:44:03.413Z,15.72
2019-02-12T15:46:34.489Z,24.63
2019-02-12T15:49:03.187Z,17.92
2019-02-12T15:51:31.916Z,16.32
2019-02-12T15:54:00.627Z,23.47
2019-02-12T15:56:29.517Z,15.98
2019-02-12T15:58:58.415Z,19.62
2019-02-12T16:01:28.260Z,21.77
2019-02-12T16:03:58.321Z,15.98
2019-02-12T16:06:28.300Z,14.98
2019-02-12T16:08:58.953Z,18.95
2019-02-12T16:11:33.155Z,13.85
2019-02-12T16:14:04.103Z,20.90
2019-02-12T16:16:33.724Z,16.70
2019-02-12T16:19:06.229Z,23.07
2019-02-12T16:21:35.190Z,19.45
2019-02-12T16:24:04.580Z,23.05
2019-02-12T16:26:35.113Z,21.23
2019-02-12T16:29:43.244Z,22.90
2019-02-12T16:32:11.974Z,22.60
2019-02-12T16:34:40.861Z,18.45
2019-02-12T16:37:17.911Z,20.08
2019-02-12T16:39:49.915Z,19.82
2019-02-12T16:42:20.505Z,26.95
2019-02-12T16:44:53.111Z,30.08
2019-02-12T16:47:23.463Z,26.50
2019-02-12T16:49:52.019Z,29.12
2019-02-12T16:52:21.286Z,26.33
2019-02-12T16:54:50.234Z,25.85
2019-02-12T16:57:21.019Z,25.72
2019-02-12T16:59:53.330Z,25.65
2019-02-12T17:02:23.028Z,21.95
2019-02-12T17:04:51.948Z,31.57
2019-02-12T17:07:21.094Z,23.52
2019-02-12T17:09:52.303Z,21.42
2019-02-12T17:12:20.285Z,28.27
2019-02-12T17:14:49.145Z,20.25
2019-02-12T17:17:19.971Z,25.90
2019-02-12T17:19:50.570Z,27.60
2019-02-12T17:22:19.298Z,20.92
2019-02-12T17:24:48.068Z,30.10
2019-02-12T17:27:18.291Z,35.60
2019-02-12T17:29:47.212Z,39.40
2019-02-12T17:32:15.760Z,28.65
2019-02-12T17:34:46.340Z,29.10
2019-02-12T17:37:14.907Z,26.52
2019-02-12T17:39:45.134Z,28.65
2019-02-12T17:42:14.127Z,31.23
2019-02-12T17:44:43.079Z,25.52
2019-02-12T17:47:11.638Z,28.52
2019-02-12T17:49:40.173Z,31.20
2019-02-12T17:52:20.698Z,28.27
2019-02-12T17:54:49.630Z,28.12
2019-02-12T17:57:19.888Z,29.48
2019-02-12T17:59:48.474Z,27.05
2019-02-12T18:02:17.448Z,42.48
2019-02-12T18:04:46.402Z,28.23
2019-02-12T18:07:15.310Z,27.30
2019-02-12T18:09:44.194Z,30.43
2019-02-12T18:12:13.302Z,30.92
2019-02-12T18:14:42.263Z,28.57
2019-02-12T18:17:11.500Z,30.20
2019-02-12T18:19:44.751Z,27.02
2019-02-12T18:22:14.965Z,32.17
2019-02-12T18:24:45.038Z,34.45
2019-02-12T18:27:15.225Z,28.35
2019-02-12T18:29:47.240Z,31.37
2019-02-12T18:32:17.179Z,33.70
2019-02-12T18:34:45.729Z,32.88
2019-02-12T18:37:14.697Z,34.73
2019-02-12T18:39:45.299Z,34.08
2019-02-12T18:42:16.995Z,45.40
2019-02-12T18:44:46.405Z,29.40
2019-02-12T18:47:14.999Z,32.30
2019-02-12T18:49:43.859Z,28.15
2019-02-12T18:52:15.864Z,33.33
2019-02-12T18:54:44.582Z,28.10
2019-02-12T18:57:13.227Z,30.77
2019-02-12T18:59:44.086Z,29.65
2019-02-12T19:02:13.038Z,28.23
2019-02-12T19:04:41.745Z,28.95
2019-02-12T19:07:10.348Z,30.75
2019-02-12T19:09:40.320Z,32.95
2019-02-12T19:12:11.909Z,38.10
2019-02-12T19:14:40.845Z,36.13
2019-02-12T19:17:12.638Z,27.50
2019-02-12T19:19:44.756Z,30.37
2019-02-12T19:22:13.370Z,33.40
2019-02-12T19:24:41.910Z,27.65
2019-02-12T19:27:12.353Z,26.00
2019-02-12T19:29:44.648Z,28.70
2019-02-12T19:32:13.608Z,29.92
2019-02-12T19:34:43.715Z,32.17
2019-02-12T19:37:13.003Z,27.20
2019-02-12T19:39:43.244Z,34.30
2019-02-12T19:42:12.199Z,39.55
2019-02-12T19:44:40.765Z,31.27
2019-02-12T19:47:09.296Z,29.60
2019-02-12T19:49:38.047Z,34.30
2019-02-12T19:52:06.635Z,30.37
2019-02-12T19:54:35.178Z,41.05
2019-02-12T19:57:05.094Z,30.75
2019-02-12T19:59:33.641Z,30.12
2019-02-12T20:02:02.197Z,34.70
2019-02-12T20:04:30.722Z,30.97
2019-02-12T20:06:59.860Z,38.88
2019-02-12T20:09:28.787Z,31.73
2019-02-12T20:11:57.327Z,28.23
2019-02-12T20:14:27.988Z,30.27
2019-02-12T20:16:59.404Z,36.85
2019-02-12T20:19:30.369Z,43.40
2019-02-12T20:25:02.460Z,29.95
2019-02-12T20:27:36.302Z,36.90
2019-02-12T20:30:06.363Z,37.63
2019-02-12T20:32:34.908Z,31.23
2019-02-12T20:35:03.882Z,23.92
2019-02-12T20:37:34.373Z,30.62
2019-02-12T20:40:04.999Z,34.95
2019-02-12T20:42:33.538Z,33.15
2019-02-12T20:45:09.620Z,30.48
2019-02-12T20:47:39.787Z,39.23
2019-02-12T20:50:09.874Z,33.00
2019-02-12T20:52:38.416Z,33.28
2019-02-12T20:55:07.753Z,42.08
2019-02-12T20:57:38.347Z,43.58
2019-02-12T21:00:09.644Z,37.25
2019-02-12T21:02:40.313Z,31.17
2019-02-12T21:05:10.379Z,33.02
2019-02-12T21:07:40.483Z,39.60
2019-02-12T21:10:12.576Z,37.38
2019-02-12T21:12:41.151Z,35.33
2019-02-12T21:15:13.760Z,37.42
2019-02-12T21:17:42.385Z,40.48
2019-02-12T21:20:11.391Z,38.13
2019-02-12T21:22:40.202Z,40.35
2019-02-12T21:25:15.384Z,34.55
2019-02-12T21:27:44.018Z,44.05
2019-02-12T21:30:14.872Z,42.50
2019-02-12T21:32:43.417Z,47.55
2019-02-12T21:35:12.215Z,37.88
2019-02-12T21:37:41.230Z,38.85
2019-02-12T21:40:12.997Z,36.77
2019-02-12T21:42:41.588Z,38.48
2019-02-12T21:45:10.412Z,36.98
2019-02-12T21:47:39.137Z,35.33
2019-02-12T21:50:11.194Z,38.45
2019-02-12T21:52:39.826Z,39.25
2019-02-12T21:55:09.441Z,40.33
2019-02-12T21:57:40.264Z,38.00
2019-02-12T22:00:11.220Z,45.28
2019-02-12T22:02:44.533Z,46.92
2019-02-12T22:05:15.614Z,49.05
2019-02-12T22:07:44.260Z,52.25
2019-02-12T22:10:15.513Z,51.55
2019-02-12T22:12:44.217Z,41.40
2019-02-12T22:15:13.426Z,38.53
2019-02-12T22:17:42.234Z,42.25
2019-02-12T22:20:12.994Z,41.92
2019-02-12T22:22:43.954Z,48.28
2019-02-12T22:25:15.666Z,39.85
2019-02-12T22:27:44.385Z,40.55
2019-02-12T22:30:18.084Z,36.38
2019-02-12T22:32:48.307Z,40.75
2019-02-12T22:35:16.893Z,36.10
2019-02-12T22:37:49.094Z,38.67
2019-02-12T22:40:17.651Z,39.13
2019-02-12T22:42:48.047Z,41.83
2019-02-12T22:45:20.145Z,42.27
2019-02-12T22:47:50.690Z,42.83
2019-02-12T22:50:19.578Z,38.67
2019-02-12T22:52:48.287Z,44.58
2019-02-12T22:55:20.509Z,40.92
2019-02-12T22:57:50.639Z,41.55
2019-02-12T23:00:28.715Z,44.98
2019-02-12T23:02:57.295Z,41.02
2019-02-12T23:05:25.892Z,46.88
2019-02-12T23:07:54.654Z,39.67
2019-02-12T23:10:23.178Z,47.17
2019-02-12T23:12:52.089Z,38.55
2019-02-12T23:15:24.920Z,40.52
2019-02-12T23:17:55.826Z,39.45
2019-02-12T23:20:28.145Z,42.05
2019-02-12T23:22:56.728Z,40.52
2019-02-12T23:25:25.643Z,40.38
2019-02-12T23:27:57.719Z,39.13
2019-02-12T23:30:26.373Z,38.58
2019-02-12T23:32:54.901Z,37.25
2019-02-12T23:35:26.992Z,37.40
2019-02-12T23:37:55.549Z,40.15
2019-02-12T23:40:24.104Z,39.92
2019-02-12T23:42:54.600Z,34.27
2019-02-12T23:45:25.172Z,37.90
2019-02-12T23:47:54.091Z,36.80
2019-02-12T23:50:22.619Z,36.35
2019-02-12T23:52:52.527Z,33.15
2019-02-12T23:55:23.021Z,33.33
2019-02-12T23:57:51.911Z,34.63
